createdAt,value
2023-01-25T00:06:07.836Z,66.02
2023-01-25T00:08:36.311Z,65.56
2023-01-25T00:11:05.111Z,65.34
2023-01-25T00:13:33.787Z,65.41
2023-01-25T00:16:03.118Z,65.52
2023-01-25T00:18:31.696Z,65.70
2023-01-25T00:21:00.050Z,65.88
2023-01-25T00:23:28.355Z,65.96
2023-01-25T00:25:58.736Z,65.83
2023-01-25T00:28:27.436Z,65.93
2023-01-25T00:31:02.780Z,65.92
2023-01-25T00:33:37.715Z,66.13
2023-01-25T00:36:37.641Z,66.13
2023-01-25T00:39:06.522Z,66.15
2023-01-25T00:41:34.705Z,66.24
2023-01-25T00:44:03.076Z,65.86
2023-01-25T00:46:31.766Z,65.64
2023-01-25T00:48:59.957Z,65.67
2023-01-25T00:51:28.415Z,65.65
2023-01-25T00:53:57.013Z,65.54
2023-01-25T00:56:25.697Z,65.48
2023-01-25T00:58:54.083Z,65.58
2023-01-25T01:01:22.494Z,65.53
2023-01-25T01:03:52.063Z,65.41
2023-01-25T01:06:20.499Z,65.23
2023-01-25T01:08:49.116Z,65.19
2023-01-25T01:11:17.806Z,65.34
2023-01-25T01:13:46.079Z,65.22
2023-01-25T01:16:14.374Z,65.37
2023-01-25T01:18:44.207Z,65.63
2023-01-25T01:21:13.055Z,65.78
2023-01-25T01:23:41.446Z,65.75
2023-01-25T01:26:12.693Z,65.78
2023-01-25T01:28:40.945Z,65.61
2023-01-25T01:31:12.308Z,65.51
2023-01-25T01:33:43.357Z,65.60
2023-01-25T01:36:14.249Z,65.67
2023-01-25T01:38:42.768Z,65.60
2023-01-25T01:41:11.877Z,65.63
2023-01-25T01:43:40.658Z,65.52
2023-01-25T01:46:45.792Z,65.54
2023-01-25T01:49:18.990Z,65.54
2023-01-25T01:52:03.274Z,65.62
2023-01-25T01:54:41.139Z,65.74
2023-01-25T01:57:15.968Z,65.75
2023-01-25T02:00:03.399Z,65.85
2023-01-25T02:02:41.334Z,65.87
2023-01-25T02:05:17.999Z,65.71
2023-01-25T02:07:47.483Z,65.53
2023-01-25T02:10:15.955Z,65.43
2023-01-25T02:12:45.972Z,65.29
2023-01-25T02:15:14.559Z,65.18
2023-01-25T02:17:42.958Z,65.17
2023-01-25T02:20:45.665Z,64.89
2023-01-25T02:23:17.948Z,64.72
2023-01-25T02:25:46.675Z,64.73
2023-01-25T02:28:25.415Z,64.64
2023-01-25T02:30:53.830Z,64.70
2023-01-25T02:33:26.353Z,64.68
2023-01-25T02:36:07.422Z,64.72
2023-01-25T02:38:43.595Z,64.66
2023-01-25T02:41:26.197Z,64.53
2023-01-25T02:43:54.786Z,64.31
2023-01-25T02:46:27.901Z,64.18
2023-01-25T02:48:56.569Z,64.30
2023-01-25T02:51:26.177Z,64.32
2023-01-25T02:53:56.243Z,64.39
2023-01-25T02:56:24.669Z,64.31
2023-01-25T02:58:53.149Z,64.31
2023-01-25T03:01:21.692Z,64.04
2023-01-25T03:55:39.622Z,61.05
2023-01-25T03:58:08.914Z,60.49
2023-01-25T04:00:37.435Z,60.31
2023-01-25T04:03:05.948Z,60.05
2023-01-25T04:05:34.944Z,59.78
2023-01-25T04:08:03.476Z,59.86
2023-01-25T04:10:37.728Z,59.76
2023-01-25T04:13:06.347Z,59.26
2023-01-25T04:15:35.734Z,59.20
2023-01-25T04:18:10.269Z,58.90
2023-01-25T04:20:38.931Z,58.68
2023-01-25T04:23:07.875Z,58.30
2023-01-25T04:25:38.401Z,57.95
2023-01-25T04:28:10.637Z,58.33
2023-01-25T04:30:41.951Z,58.64
2023-01-25T04:33:11.997Z,58.86
2023-01-25T04:35:40.937Z,58.70
2023-01-25T04:38:10.000Z,58.61
2023-01-25T04:40:42.658Z,58.67
2023-01-25T04:43:12.451Z,58.66
2023-01-25T04:45:40.912Z,58.65
2023-01-25T04:48:13.693Z,58.55
2023-01-25T04:50:47.800Z,58.40
2023-01-25T04:53:16.015Z,58.15
2023-01-25T04:55:47.352Z,57.99
2023-01-25T04:58:15.996Z,57.86
2023-01-25T05:00:44.754Z,57.98
2023-01-25T05:03:13.057Z,57.95
2023-01-25T05:05:48.388Z,57.85
2023-01-25T05:08:19.685Z,57.82
2023-01-25T05:10:47.999Z,57.75
2023-01-25T05:13:19.979Z,57.71
2023-01-25T05:15:50.965Z,57.71
2023-01-25T05:18:19.145Z,57.74
2023-01-25T05:20:56.677Z,57.83
2023-01-25T05:23:28.553Z,57.70
2023-01-25T05:26:15.701Z,57.66
2023-01-25T05:28:44.208Z,57.70
2023-01-25T05:31:40.309Z,57.63
2023-01-25T05:34:09.480Z,57.69
2023-01-25T05:36:38.254Z,58.08
2023-01-25T05:39:08.927Z,58.22
2023-01-25T05:41:37.325Z,58.41
2023-01-25T05:44:05.681Z,58.54
2023-01-25T05:46:37.568Z,58.62
2023-01-25T05:49:05.948Z,58.52
2023-01-25T05:51:35.808Z,58.31
2023-01-25T05:54:05.973Z,58.16
2023-01-25T05:56:35.510Z,58.24
2023-01-25T05:59:04.049Z,58.34
2023-01-25T06:01:32.383Z,57.96
2023-01-25T06:04:01.629Z,57.71
2023-01-25T06:06:37.843Z,57.66
2023-01-25T06:09:06.337Z,57.41
2023-01-25T06:11:37.969Z,57.43
2023-01-25T06:14:06.636Z,57.48
2023-01-25T06:16:34.863Z,57.51
2023-01-25T06:19:35.967Z,57.61
2023-01-25T06:22:17.801Z,57.52
2023-01-25T06:24:46.062Z,57.60
2023-01-25T06:27:14.404Z,57.92
2023-01-25T06:29:43.744Z,57.95
2023-01-25T06:32:12.081Z,57.79
2023-01-25T06:34:40.998Z,58.02
2023-01-25T06:37:12.115Z,58.02
2023-01-25T06:39:40.362Z,57.91
2023-01-25T06:42:08.494Z,57.88
2023-01-25T06:44:37.650Z,57.97
2023-01-25T06:47:10.435Z,57.93
2023-01-25T06:49:38.891Z,57.90
2023-01-25T06:52:07.246Z,57.91
2023-01-25T06:54:35.532Z,58.00
2023-01-25T06:57:04.106Z,58.12
2023-01-25T06:59:33.317Z,58.19
2023-01-25T07:02:01.423Z,58.31
2023-01-25T07:04:31.830Z,58.41
2023-01-25T07:07:00.592Z,58.59
2023-01-25T07:09:28.870Z,58.54
2023-01-25T07:11:57.558Z,58.46
2023-01-25T07:14:25.831Z,58.75
2023-01-25T07:16:54.314Z,58.91
2023-01-25T07:19:22.385Z,58.79
2023-01-25T07:21:51.168Z,58.87
2023-01-25T07:24:20.448Z,58.96
2023-01-25T07:26:49.588Z,59.10
2023-01-25T07:29:18.154Z,59.16
2023-01-25T07:31:47.004Z,59.13
2023-01-25T07:34:15.830Z,58.92
2023-01-25T07:36:44.691Z,58.60
2023-01-25T07:39:13.007Z,58.60
2023-01-25T07:41:41.060Z,58.41
2023-01-25T07:44:14.023Z,58.17
2023-01-25T07:46:47.458Z,58.25
2023-01-25T07:49:16.137Z,58.17
2023-01-25T07:51:46.028Z,58.17
2023-01-25T07:54:14.551Z,57.98
2023-01-25T07:56:42.919Z,57.94
2023-01-25T10:14:58.605Z,59.48
2023-01-25T10:17:39.242Z,59.50
2023-01-25T10:20:09.672Z,59.61
2023-01-25T10:22:43.159Z,59.41
2023-01-25T10:25:24.584Z,59.29
2023-01-25T10:28:19.652Z,59.36
2023-01-25T10:31:16.303Z,59.25
2023-01-25T10:33:46.658Z,59.13
2023-01-25T10:36:18.050Z,59.05
2023-01-25T10:38:46.197Z,58.95
2023-01-25T10:41:19.875Z,58.93
2023-01-25T10:43:47.090Z,58.85
2023-01-25T10:46:22.141Z,58.71
2023-01-25T10:48:48.920Z,58.52
2023-01-25T10:51:31.993Z,58.02
2023-01-25T10:54:03.649Z,57.89
2023-01-25T10:56:33.944Z,57.91
2023-01-25T10:59:18.380Z,57.83
2023-01-25T11:01:45.541Z,57.78
2023-01-25T11:04:34.378Z,57.47
2023-01-25T11:07:05.422Z,57.39
2023-01-25T11:09:38.918Z,57.39
2023-01-25T11:12:10.986Z,57.49
2023-01-25T11:14:37.826Z,57.40
2023-01-25T11:17:08.763Z,57.43
2023-01-25T11:19:40.080Z,57.46
2023-01-25T11:22:19.160Z,57.41
2023-01-25T11:24:45.874Z,57.52
2023-01-25T11:27:22.472Z,57.56
2023-01-25T11:30:15.669Z,57.58
2023-01-25T11:32:42.661Z,57.56
2023-01-25T11:35:14.620Z,57.51
2023-01-25T11:38:22.332Z,57.62
2023-01-25T11:41:24.605Z,57.68
2023-01-25T11:45:42.210Z,58.50
2023-01-25T11:48:28.261Z,58.21
2023-01-25T11:51:00.190Z,58.03
2023-01-25T11:53:34.611Z,58.16
2023-01-25T11:56:08.215Z,58.28
2023-01-25T11:58:39.673Z,58.38
2023-01-25T12:01:19.301Z,58.36
2023-01-25T12:04:10.772Z,58.02
2023-01-25T12:06:58.558Z,57.98
2023-01-25T12:09:37.182Z,57.93
2023-01-25T12:12:32.789Z,57.91
2023-01-25T12:15:23.718Z,57.80
2023-01-25T12:17:55.256Z,57.78
2023-01-25T12:20:31.829Z,57.42
2023-01-25T12:23:12.254Z,57.42
2023-01-25T12:26:07.914Z,57.49
2023-01-25T12:28:53.898Z,57.55
2023-01-25T12:31:35.141Z,57.62
2023-01-25T12:34:05.371Z,57.87
2023-01-25T12:36:37.369Z,57.96
2023-01-25T12:39:11.427Z,57.93
2023-01-25T12:42:11.213Z,58.05
2023-01-25T12:44:50.938Z,58.06
2023-01-25T12:47:39.902Z,58.19
2023-01-25T12:50:39.204Z,58.12
2023-01-25T12:53:14.032Z,58.02
2023-01-25T12:55:42.411Z,58.23
2023-01-25T12:58:23.810Z,58.46
2023-01-25T13:01:13.060Z,58.71
2023-01-25T13:04:00.148Z,58.71
2023-01-25T13:06:58.462Z,58.69
2023-01-25T13:09:28.412Z,58.82
2023-01-25T13:11:56.957Z,58.80
2023-01-25T13:14:29.541Z,58.90
2023-01-25T13:17:23.676Z,58.90
2023-01-25T13:19:53.920Z,58.77
2023-01-25T13:22:43.932Z,58.73
2023-01-25T13:25:18.460Z,59.04
2023-01-25T13:27:46.836Z,59.03
2023-01-25T13:30:29.148Z,59.18
2023-01-25T13:33:06.632Z,59.16
2023-01-25T13:35:40.256Z,59.35
2023-01-25T13:38:17.628Z,59.23
2023-01-25T13:40:46.510Z,59.12
2023-01-25T16:12:15.827Z,59.29
2023-01-25T16:14:45.323Z,58.48
2023-01-25T16:17:20.697Z,58.49
2023-01-25T16:19:49.146Z,58.51
2023-01-25T16:22:18.149Z,58.53
2023-01-25T16:24:46.728Z,58.69
2023-01-25T16:27:16.963Z,58.72
2023-01-25T16:29:45.323Z,58.75
2023-01-25T16:32:13.784Z,58.92
2023-01-25T16:34:42.055Z,58.97
2023-01-25T16:37:17.016Z,59.19
2023-01-25T16:39:45.908Z,59.28
2023-01-25T16:42:14.185Z,59.16
2023-01-25T16:44:42.673Z,59.44
2023-01-25T16:47:13.753Z,59.63
2023-01-25T16:49:41.987Z,59.84
2023-01-25T16:52:12.062Z,59.94
2023-01-25T16:54:40.178Z,60.00
2023-01-25T16:57:19.998Z,60.04
2023-01-25T16:59:48.868Z,60.09
2023-01-25T17:02:17.137Z,60.05
2023-01-25T17:04:45.336Z,60.23
2023-01-25T17:07:13.949Z,60.40
2023-01-25T17:09:42.124Z,60.30
2023-01-25T17:12:12.854Z,60.17
2023-01-25T17:14:41.341Z,60.14
2023-01-25T17:17:10.032Z,60.15
2023-01-25T17:19:39.168Z,59.91
2023-01-25T17:22:07.807Z,59.82
2023-01-25T17:24:36.615Z,59.71
2023-01-25T17:27:05.407Z,59.61
2023-01-25T17:29:33.863Z,59.53
2023-01-25T17:32:02.451Z,59.45
2023-01-25T17:34:30.581Z,59.46
2023-01-25T17:36:59.035Z,59.49
2023-01-25T17:39:27.384Z,59.49
2023-01-25T17:41:56.104Z,59.27
2023-01-25T17:44:25.166Z,59.51
2023-01-25T17:46:53.851Z,59.49
2023-01-25T17:49:22.785Z,59.81
2023-01-25T17:51:51.121Z,59.93
2023-01-25T17:54:19.789Z,60.04
2023-01-25T17:56:48.085Z,60.17
2023-01-25T17:59:18.625Z,60.15
2023-01-25T18:01:46.832Z,60.28
2023-01-25T18:04:17.752Z,60.40
2023-01-25T18:06:50.054Z,60.48
2023-01-25T18:09:19.066Z,60.45
2023-01-25T18:11:48.118Z,60.58
2023-01-25T18:14:17.093Z,60.67
2023-01-25T18:16:46.035Z,60.59
2023-01-25T18:19:14.356Z,60.61
2023-01-25T18:21:44.881Z,60.77
2023-01-25T18:24:33.740Z,60.86
2023-01-25T18:27:19.625Z,60.70
2023-01-25T18:30:05.283Z,60.54
2023-01-25T18:32:33.756Z,60.41
2023-01-25T18:35:02.523Z,60.05
2023-01-25T18:37:35.922Z,59.99
2023-01-25T18:40:05.899Z,59.98
2023-01-25T18:42:35.712Z,59.83
2023-01-25T18:45:04.930Z,59.61
2023-01-25T18:47:33.134Z,59.36
2023-01-25T18:50:01.358Z,59.29
2023-01-25T18:52:29.947Z,59.38
2023-01-25T18:54:58.321Z,59.42
2023-01-25T18:57:26.723Z,59.43
2023-01-25T18:59:55.386Z,59.39
2023-01-25T19:02:23.860Z,59.58
2023-01-25T19:04:52.372Z,59.68
2023-01-25T19:07:22.163Z,59.64
2023-01-25T19:09:50.539Z,59.60
2023-01-25T19:12:18.832Z,59.57
2023-01-25T19:14:47.197Z,59.58
2023-01-25T19:17:15.781Z,59.51
2023-01-25T19:19:44.273Z,59.79
2023-01-25T19:22:12.501Z,59.89
2023-01-25T19:24:44.401Z,60.01
2023-01-25T19:27:12.780Z,60.18
2023-01-25T19:29:41.934Z,60.15
2023-01-25T19:32:11.484Z,60.16
2023-01-25T19:34:39.850Z,60.25
2023-01-25T19:37:08.462Z,60.13
2023-01-25T19:39:37.180Z,60.21
2023-01-25T19:42:06.861Z,60.14
2023-01-25T19:44:35.557Z,60.27
2023-01-25T19:47:03.855Z,60.23
2023-01-25T19:49:32.360Z,59.94
2023-01-25T19:52:00.566Z,59.66
2023-01-25T19:54:28.756Z,59.62
2023-01-25T19:59:25.027Z,60.21
2023-01-25T20:01:53.551Z,59.57
2023-01-25T20:04:23.087Z,59.31
2023-01-25T20:06:51.831Z,59.18
2023-01-25T20:09:25.025Z,59.00
2023-01-25T20:11:55.581Z,59.08
2023-01-25T20:14:23.948Z,59.02
2023-01-25T20:16:52.943Z,58.98
2023-01-25T20:19:24.679Z,59.09
2023-01-25T20:21:52.800Z,59.26
2023-01-25T20:24:22.432Z,59.39
2023-01-25T20:26:51.659Z,59.54
2023-01-25T20:29:21.578Z,59.72
2023-01-25T20:31:50.252Z,59.83
2023-01-25T20:34:20.963Z,60.02
2023-01-25T20:36:50.133Z,60.11
2023-01-25T20:39:21.027Z,60.23
2023-01-25T20:41:53.641Z,60.23
2023-01-25T20:44:22.300Z,60.29
2023-01-25T20:46:52.796Z,60.23
2023-01-25T20:49:21.384Z,60.38
2023-01-25T20:51:49.989Z,60.28
2023-01-25T20:54:20.517Z,60.11
2023-01-25T20:56:50.485Z,60.05
2023-01-25T20:59:19.654Z,60.04
2023-01-25T21:01:48.054Z,60.24
2023-01-25T21:04:16.547Z,60.17
2023-01-25T21:06:45.284Z,60.10
2023-01-25T21:09:13.579Z,60.11
2023-01-25T21:11:42.035Z,60.16
2023-01-25T21:14:10.319Z,60.15
2023-01-25T21:16:38.634Z,60.23
2023-01-25T21:19:07.597Z,60.46
2023-01-25T21:21:35.989Z,60.42
2023-01-25T21:24:06.029Z,60.70
2023-01-25T21:26:35.622Z,60.77
2023-01-25T21:29:04.288Z,60.79
2023-01-25T21:31:36.198Z,60.79
2023-01-25T21:34:09.328Z,60.85
2023-01-25T21:36:37.731Z,60.92
2023-01-25T21:39:06.506Z,60.93
2023-01-25T21:41:34.869Z,60.87
2023-01-25T21:44:21.734Z,61.00
2023-01-25T21:47:16.367Z,61.12
2023-01-25T21:49:56.911Z,61.09
2023-01-25T21:52:25.109Z,61.00
2023-01-25T21:54:53.253Z,60.66
2023-01-25T22:27:52.545Z,60.25
2023-01-25T22:30:20.949Z,59.03
2023-01-25T22:32:49.562Z,59.03
2023-01-25T22:35:17.866Z,59.26
2023-01-25T22:37:46.143Z,59.44
2023-01-25T22:40:14.601Z,59.55
2023-01-25T22:42:42.898Z,59.83
2023-01-25T22:45:11.664Z,59.94
2023-01-25T22:47:42.092Z,60.23
2023-01-25T22:50:11.635Z,60.40
2023-01-25T22:52:40.384Z,60.48
2023-01-25T22:55:11.023Z,60.74
2023-01-25T22:57:39.399Z,60.85
2023-01-25T23:00:09.404Z,61.00
2023-01-25T23:02:41.175Z,60.94
2023-01-25T23:05:09.535Z,61.03
2023-01-25T23:07:37.845Z,61.10
2023-01-25T23:10:06.718Z,61.05
2023-01-25T23:12:35.916Z,61.11
2023-01-25T23:15:07.678Z,61.18
2023-01-25T23:17:55.217Z,61.16
2023-01-25T23:20:23.922Z,61.00
2023-01-25T23:22:52.481Z,60.88
2023-01-25T23:25:20.750Z,60.83
2023-01-25T23:27:49.539Z,60.69
2023-01-25T23:30:18.541Z,60.72
2023-01-25T23:32:49.432Z,60.78
2023-01-25T23:35:18.814Z,60.67
2023-01-25T23:37:47.459Z,60.64
2023-01-25T23:40:16.352Z,60.32
2023-01-25T23:42:44.634Z,60.24
2023-01-25T23:45:14.848Z,60.42
2023-01-25T23:47:43.244Z,60.53
2023-01-25T23:50:12.181Z,60.60
2023-01-25T23:52:40.498Z,60.61
2023-01-25T23:55:09.292Z,60.48
2023-01-25T23:57:37.331Z,60.66
